Baldwin, Kansas
Current Conditions -  °F | °C
As of 11:52 PM on Saturday 25 Oct 2014 (Local Time) from KLWC Reporting Station
Clear Clear  
Wind Chill: 61°   Ceiling: Unl
Heat Index: 61°   Visibility: 7mi
Dew Point: 55°   Wind: 6mph
Humidity: 81%   Direction: 120°ESE
Pressure: 29.98"   Gusts: NA
Location:  38.8017°N, 95.2855°W
Report Text: KLWC 260452Z AUTO 12005KT 7SM CLR 16/13 A2998 RMK AO2 SLP149 T01610128
Loading
Personal Weather Stations






























Interactive Weather Map
Tropical Storm Tracking
New forecast layout! Learn more

10-Day Weather Forecast

Advertisements
Track Severe Weather on mobile